createdAt,value
2022-12-22T00:01:23.125Z,98.85
2022-12-22T00:04:08.422Z,99.07
2022-12-22T00:06:53.901Z,99.52
2022-12-22T00:09:39.199Z,99.35
2022-12-22T00:12:27.844Z,99.10
2022-12-22T00:15:13.299Z,99.65
2022-12-22T00:17:59.000Z,98.96
2022-12-22T00:20:43.965Z,98.66
2022-12-22T00:23:29.583Z,98.64
2022-12-22T00:26:15.069Z,99.00
2022-12-22T00:29:02.678Z,98.71
2022-12-22T00:31:49.079Z,99.00
2022-12-22T00:34:36.722Z,99.54
2022-12-22T00:37:21.988Z,99.97
2022-12-22T00:40:08.128Z,100.00
2022-12-22T00:42:53.171Z,100.00
2022-12-22T00:45:39.758Z,100.00
2022-12-22T00:48:30.161Z,100.00
2022-12-22T00:51:16.146Z,100.00
2022-12-22T00:54:01.423Z,100.00
2022-12-22T00:56:46.979Z,100.00
2022-12-22T00:59:32.375Z,100.00
2022-12-22T01:02:19.167Z,100.00
2022-12-22T01:05:04.371Z,100.00
2022-12-22T01:07:49.716Z,100.00
2022-12-22T01:10:35.565Z,100.00
2022-12-22T01:13:20.716Z,100.00
2022-12-22T01:16:06.201Z,100.00
2022-12-22T01:18:53.121Z,100.00
2022-12-22T01:21:38.380Z,100.00
2022-12-22T01:24:30.049Z,100.00
2022-12-22T01:27:15.573Z,100.00
2022-12-22T01:30:00.496Z,100.00
2022-12-22T01:32:45.655Z,100.00
2022-12-22T01:35:38.808Z,100.00
2022-12-22T01:38:24.100Z,100.00
2022-12-22T01:41:09.588Z,100.00
2022-12-22T01:43:55.579Z,100.00
2022-12-22T01:46:43.872Z,100.00
2022-12-22T01:49:32.468Z,100.00
2022-12-22T01:52:20.535Z,100.00
2022-12-22T01:55:06.881Z,100.00
2022-12-22T01:57:52.823Z,100.00
2022-12-22T02:00:38.382Z,100.00
2022-12-22T02:03:34.068Z,100.00
2022-12-22T02:06:30.803Z,100.00
2022-12-22T02:09:32.462Z,100.00
2022-12-22T02:12:28.286Z,100.00
2022-12-22T02:15:24.336Z,100.00
2022-12-22T02:18:20.022Z,100.00
2022-12-22T02:21:08.413Z,100.00
2022-12-22T02:24:14.633Z,100.00
2022-12-22T02:27:04.642Z,100.00
2022-12-22T02:29:55.014Z,100.00
2022-12-22T02:32:42.151Z,100.00
2022-12-22T02:35:31.741Z,100.00
2022-12-22T02:38:26.003Z,100.00
2022-12-22T02:41:21.399Z,100.00
2022-12-22T02:44:28.521Z,100.00
2022-12-22T02:47:19.330Z,100.00
2022-12-22T02:50:11.812Z,100.00
2022-12-22T02:52:59.193Z,100.00
2022-12-22T02:55:45.270Z,100.00
2022-12-22T02:58:30.573Z,100.00
2022-12-22T03:01:17.855Z,100.00
2022-12-22T03:04:03.510Z,100.00
2022-12-22T03:06:48.829Z,100.00
2022-12-22T03:09:33.891Z,100.00
2022-12-22T03:12:19.357Z,100.00
2022-12-22T03:15:04.524Z,100.00
2022-12-22T03:17:51.375Z,100.00
2022-12-22T03:20:36.505Z,100.00
2022-12-22T03:23:22.807Z,100.00
2022-12-22T03:25:54.109Z,100.00
2022-12-22T03:28:22.819Z,100.00
2022-12-22T03:30:55.265Z,100.00
2022-12-22T03:33:24.534Z,100.00
2022-12-22T03:35:52.377Z,100.00
2022-12-22T03:38:20.208Z,100.00
2022-12-22T03:40:48.185Z,100.00
2022-12-22T03:43:34.743Z,100.00
2022-12-22T03:46:20.083Z,100.00
2022-12-22T03:49:09.610Z,100.00
2022-12-22T03:51:39.474Z,100.00
2022-12-22T03:54:16.257Z,100.00
2022-12-22T03:56:44.095Z,100.00
2022-12-22T03:59:13.271Z,100.00
2022-12-22T04:01:45.422Z,100.00
2022-12-22T04:04:16.243Z,100.00
2022-12-22T04:06:44.180Z,100.00
2022-12-22T04:09:11.838Z,100.00
2022-12-22T04:11:57.130Z,100.00
2022-12-22T04:14:31.315Z,100.00
2022-12-22T04:17:01.368Z,100.00
2022-12-22T04:19:30.297Z,100.00
2022-12-22T04:21:58.135Z,100.00
2022-12-22T04:24:26.143Z,100.00
2022-12-22T04:26:54.174Z,100.00
2022-12-22T04:29:21.696Z,100.00
2022-12-22T04:31:49.394Z,100.00
2022-12-22T04:34:17.047Z,100.00
2022-12-22T04:36:45.937Z,100.00
2022-12-22T04:39:13.492Z,100.00
2022-12-22T04:41:41.059Z,100.00
2022-12-22T04:44:08.556Z,100.00
2022-12-22T04:46:36.081Z,100.00
2022-12-22T04:49:03.660Z,100.00
2022-12-22T04:51:31.257Z,100.00
2022-12-22T04:54:00.105Z,100.00
2022-12-22T04:56:27.718Z,100.00
2022-12-22T04:58:55.233Z,100.00
2022-12-22T05:01:22.933Z,100.00
2022-12-22T05:03:50.622Z,100.00
2022-12-22T05:06:18.140Z,100.00
2022-12-22T05:08:45.691Z,100.00
2022-12-22T05:11:14.541Z,100.00
2022-12-22T05:13:42.094Z,100.00
2022-12-22T05:16:12.633Z,100.00
2022-12-22T05:18:41.773Z,100.00
2022-12-22T05:21:12.405Z,100.00
2022-12-22T05:23:40.050Z,100.00
2022-12-22T05:26:07.705Z,100.00
2022-12-22T05:28:36.801Z,100.00
2022-12-22T05:31:05.918Z,100.00
2022-12-22T05:33:34.383Z,100.00
2022-12-22T05:36:02.117Z,100.00
2022-12-22T05:38:30.164Z,100.00
2022-12-22T05:41:03.984Z,100.00
2022-12-22T05:43:32.625Z,100.00
2022-12-22T05:46:04.044Z,100.00
2022-12-22T05:48:37.524Z,100.00
2022-12-22T05:51:07.317Z,100.00
2022-12-22T05:53:34.915Z,100.00
2022-12-22T05:56:02.524Z,100.00
2022-12-22T05:58:30.105Z,100.00
2022-12-22T06:00:59.122Z,100.00
2022-12-22T06:03:29.263Z,100.00
2022-12-22T06:05:57.406Z,100.00
2022-12-22T06:08:25.677Z,100.00
2022-12-22T06:10:57.763Z,100.00
2022-12-22T06:13:26.302Z,100.00
2022-12-22T06:15:56.150Z,100.00
2022-12-22T06:18:23.708Z,100.00
2022-12-22T06:20:54.545Z,100.00
2022-12-22T06:23:22.389Z,100.00
2022-12-22T06:25:55.750Z,100.00
2022-12-22T06:28:23.403Z,100.00
2022-12-22T06:30:52.852Z,100.00
2022-12-22T06:33:20.752Z,100.00
2022-12-22T06:35:53.964Z,100.00
2022-12-22T06:38:27.644Z,100.00
2022-12-22T06:40:57.697Z,100.00
2022-12-22T06:43:24.367Z,100.00
2022-12-22T06:45:51.951Z,100.00
2022-12-22T06:48:20.216Z,100.00
2022-12-22T06:50:47.945Z,100.00
2022-12-22T06:53:15.571Z,100.00
2022-12-22T06:55:44.791Z,100.00
2022-12-22T06:58:12.311Z,100.00
2022-12-22T07:00:39.912Z,100.00
2022-12-22T07:03:07.791Z,100.00
2022-12-22T07:05:35.652Z,100.00
2022-12-22T07:08:08.926Z,100.00
2022-12-22T07:10:54.925Z,100.00
2022-12-22T07:13:24.481Z,100.00
2022-12-22T07:16:00.185Z,100.00
2022-12-22T07:18:29.330Z,100.00
2022-12-22T07:20:56.878Z,100.00
2022-12-22T07:23:24.781Z,100.00
2022-12-22T07:25:52.533Z,100.00
2022-12-22T07:28:21.328Z,100.00
2022-12-22T07:30:50.538Z,100.00
2022-12-22T07:33:18.331Z,100.00
2022-12-22T07:35:50.870Z,100.00
2022-12-22T07:38:18.506Z,100.00
2022-12-22T07:40:51.668Z,100.00
2022-12-22T07:43:18.497Z,100.00
2022-12-22T07:45:46.266Z,100.00
2022-12-22T07:48:29.433Z,100.00
2022-12-22T07:51:03.899Z,100.00
2022-12-22T07:53:32.737Z,100.00
2022-12-22T07:56:03.849Z,100.00
2022-12-22T07:58:31.564Z,100.00
2022-12-22T08:01:00.351Z,100.00
2022-12-22T08:03:29.375Z,100.00
2022-12-22T08:05:57.064Z,100.00
2022-12-22T08:08:24.660Z,100.00
2022-12-22T08:10:52.221Z,100.00
2022-12-22T08:13:20.408Z,100.00
2022-12-22T08:15:48.211Z,100.00
2022-12-22T08:18:15.804Z,100.00
2022-12-22T08:20:51.375Z,100.00
2022-12-22T08:23:19.151Z,100.00
2022-12-22T08:25:49.692Z,100.00
2022-12-22T08:28:18.205Z,100.00
2022-12-22T08:30:46.947Z,100.00
2022-12-22T08:33:14.677Z,100.00
2022-12-22T08:35:43.029Z,100.00
2022-12-22T08:38:13.999Z,100.00
2022-12-22T08:40:45.630Z,100.00
2022-12-22T08:43:13.497Z,100.00
2022-12-22T08:45:42.477Z,100.00
2022-12-22T08:48:10.653Z,100.00
2022-12-22T08:50:38.861Z,100.00
2022-12-22T08:53:18.843Z,100.00
2022-12-22T08:55:57.568Z,100.00
2022-12-22T08:58:25.137Z,100.00
2022-12-22T09:00:52.725Z,100.00
2022-12-22T09:03:20.559Z,100.00
2022-12-22T09:05:48.157Z,100.00
2022-12-22T09:08:15.812Z,100.00
2022-12-22T09:10:44.367Z,100.00
2022-12-22T09:13:13.296Z,100.00
2022-12-22T09:15:40.853Z,100.00
2022-12-22T09:18:08.462Z,100.00
2022-12-22T09:20:35.971Z,100.00
2022-12-22T09:23:03.656Z,100.00
2022-12-22T09:25:31.218Z,100.00
2022-12-22T09:27:59.090Z,100.00
2022-12-22T09:30:28.072Z,100.00
2022-12-22T09:32:55.724Z,100.00
2022-12-22T09:35:23.338Z,100.00
2022-12-22T09:37:50.901Z,100.00
2022-12-22T09:40:21.473Z,100.00
2022-12-22T09:42:49.220Z,100.00
2022-12-22T09:45:20.152Z,100.00
2022-12-22T09:47:53.646Z,100.00
2022-12-22T09:50:23.951Z,100.00
2022-12-22T09:52:54.904Z,100.00
2022-12-22T09:55:35.612Z,100.00
2022-12-22T09:58:04.596Z,100.00
2022-12-22T10:00:36.787Z,100.00
2022-12-22T10:03:16.851Z,100.00
2022-12-22T10:05:51.379Z,100.00
2022-12-22T10:08:28.308Z,100.00
2022-12-22T10:10:56.826Z,100.00
2022-12-22T10:13:24.434Z,100.00
2022-12-22T10:15:53.263Z,100.00
2022-12-22T10:18:24.882Z,100.00
2022-12-22T10:21:10.530Z,100.00
2022-12-22T10:23:40.942Z,100.00
2022-12-22T10:26:30.716Z,100.00
2022-12-22T10:29:02.068Z,100.00
2022-12-22T10:31:31.626Z,100.00
2022-12-22T10:34:12.625Z,100.00
2022-12-22T10:36:41.006Z,100.00
2022-12-22T10:39:10.158Z,100.00
2022-12-22T10:41:42.808Z,100.00
2022-12-22T10:44:19.662Z,100.00
2022-12-22T10:46:50.198Z,100.00
2022-12-22T10:49:22.658Z,100.00
2022-12-22T10:51:53.508Z,100.00
2022-12-22T10:54:36.026Z,99.34
2022-12-22T10:57:07.183Z,98.91
2022-12-22T10:59:50.128Z,98.06
2022-12-22T11:02:30.466Z,96.70
2022-12-22T11:05:08.642Z,96.89
2022-12-22T11:07:38.633Z,96.47
2022-12-22T11:10:19.348Z,95.57
2022-12-22T11:13:02.220Z,96.36
2022-12-22T11:15:36.787Z,96.41
2022-12-22T11:18:18.925Z,96.82
2022-12-22T11:20:56.186Z,96.98
2022-12-22T11:23:33.213Z,97.07
2022-12-22T11:26:10.256Z,97.64
2022-12-22T11:28:57.985Z,96.93
2022-12-22T11:31:44.413Z,96.04
2022-12-22T11:34:28.148Z,96.03
2022-12-22T11:37:12.339Z,95.52
2022-12-22T11:39:46.741Z,94.70
2022-12-22T11:42:30.414Z,94.63
2022-12-22T11:45:09.166Z,94.77
2022-12-22T11:47:45.301Z,95.02
2022-12-22T11:50:59.426Z,95.11
2022-12-22T11:54:04.079Z,95.71
2022-12-22T11:56:38.007Z,96.95
2022-12-22T11:59:24.300Z,97.71
2022-12-22T12:02:14.231Z,97.70
2022-12-22T12:05:23.440Z,97.79
2022-12-22T12:07:55.695Z,97.59
2022-12-22T12:10:40.480Z,97.76
2022-12-22T12:13:27.387Z,98.13
2022-12-22T12:16:08.808Z,97.48
2022-12-22T12:18:53.191Z,97.79
2022-12-22T12:21:27.805Z,97.74
2022-12-22T12:24:12.803Z,97.40
2022-12-22T12:26:50.492Z,97.33
2022-12-22T12:29:21.026Z,96.97
2022-12-22T12:31:55.051Z,96.59
2022-12-22T12:34:23.956Z,96.50
2022-12-22T12:36:58.847Z,96.53
2022-12-22T12:39:32.438Z,95.88
2022-12-22T12:42:10.576Z,95.83
2022-12-22T12:44:39.445Z,96.31
2022-12-22T12:47:22.216Z,96.19
2022-12-22T12:50:00.718Z,96.67
2022-12-22T12:53:14.492Z,97.21
2022-12-22T12:56:05.564Z,96.82
2022-12-22T12:58:54.340Z,96.72
2022-12-22T13:01:57.433Z,97.82
2022-12-22T13:05:14.288Z,97.89
2022-12-22T13:08:17.930Z,97.67
2022-12-22T13:12:01.232Z,98.12
2022-12-22T13:14:51.679Z,97.29
2022-12-22T13:17:34.066Z,97.14
2022-12-22T13:20:01.783Z,96.70
2022-12-22T13:22:30.098Z,97.00
2022-12-22T13:25:03.338Z,96.73
2022-12-22T13:27:32.003Z,96.60
2022-12-22T13:30:00.937Z,95.83
2022-12-22T13:32:34.548Z,95.63
2022-12-22T13:38:00.775Z,94.97
2022-12-22T13:40:30.781Z,93.38
2022-12-22T13:43:03.606Z,93.95
2022-12-22T13:45:37.046Z,94.79
2022-12-22T13:48:10.561Z,94.04
2022-12-22T13:50:43.642Z,94.08
2022-12-22T13:53:34.344Z,94.17
2022-12-22T13:56:06.756Z,93.72
2022-12-22T13:58:39.752Z,93.65
2022-12-22T14:01:18.489Z,93.69
2022-12-22T14:04:04.574Z,93.75
2022-12-22T14:06:34.712Z,94.24
2022-12-22T14:09:17.498Z,94.82
2022-12-22T14:11:51.957Z,94.67
2022-12-22T14:14:23.837Z,94.35
2022-12-22T14:16:56.302Z,94.83
2022-12-22T14:19:25.315Z,95.18
2022-12-22T14:22:02.997Z,95.67
2022-12-22T14:24:38.268Z,95.98
2022-12-22T14:27:07.667Z,96.55
2022-12-22T14:29:35.309Z,97.25
2022-12-22T14:32:04.780Z,98.39
2022-12-22T14:34:34.043Z,99.47
2022-12-22T14:37:02.909Z,99.89
2022-12-22T14:39:32.530Z,100.00
2022-12-22T14:42:02.530Z,100.00
2022-12-22T14:44:32.822Z,100.00
2022-12-22T14:47:15.959Z,100.00
2022-12-22T14:49:50.141Z,100.00
2022-12-22T14:52:25.439Z,100.00
2022-12-22T14:54:55.351Z,100.00
2022-12-22T14:57:31.375Z,100.00
2022-12-22T15:00:02.671Z,99.67
2022-12-22T15:02:39.084Z,99.57
2022-12-22T15:05:16.973Z,98.54
2022-12-22T15:08:05.555Z,98.63
2022-12-22T15:10:42.165Z,97.89
2022-12-22T15:13:17.214Z,97.93
2022-12-22T15:15:44.853Z,97.51
2022-12-22T15:18:17.276Z,97.68
2022-12-22T15:20:44.800Z,97.61
2022-12-22T15:23:16.805Z,97.49
2022-12-22T15:25:44.667Z,97.09
2022-12-22T15:28:12.402Z,96.68
2022-12-22T15:30:40.238Z,96.24
2022-12-22T15:33:14.940Z,95.87
2022-12-22T15:35:43.441Z,95.02
2022-12-22T15:38:14.512Z,94.61
2022-12-22T15:40:42.358Z,94.78
2022-12-22T15:43:28.742Z,94.84
2022-12-22T15:45:58.395Z,94.79
2022-12-22T15:48:31.409Z,94.83
2022-12-22T15:50:59.917Z,95.21
2022-12-22T15:53:27.625Z,95.54
2022-12-22T15:55:58.325Z,95.69
2022-12-22T15:58:28.964Z,95.69
2022-12-22T16:00:56.642Z,95.58
2022-12-22T16:03:24.483Z,95.59
2022-12-22T16:05:54.562Z,94.97
2022-12-22T16:08:31.446Z,94.29
2022-12-22T16:10:59.413Z,94.75
2022-12-22T16:13:31.465Z,95.03
2022-12-22T16:15:59.776Z,95.23
2022-12-22T16:18:27.472Z,95.75
2022-12-22T16:20:58.550Z,96.51
2022-12-22T16:23:27.956Z,96.10
2022-12-22T16:26:01.995Z,96.30
2022-12-22T16:28:30.027Z,95.83
2022-12-22T16:30:58.100Z,95.89
2022-12-22T16:33:25.708Z,96.56
2022-12-22T16:35:53.343Z,96.17
2022-12-22T16:38:24.623Z,96.28
2022-12-22T16:40:54.186Z,96.15
2022-12-22T16:46:17.611Z,96.82
2022-12-22T16:48:47.712Z,97.58
2022-12-22T16:51:22.613Z,97.37
2022-12-22T16:53:51.651Z,97.04
2022-12-22T16:56:22.285Z,97.38
2022-12-22T16:58:50.589Z,98.09
2022-12-22T17:01:23.581Z,97.96
2022-12-22T17:03:51.382Z,97.60
2022-12-22T17:06:19.135Z,97.40
2022-12-22T17:08:47.330Z,97.59
2022-12-22T17:11:22.337Z,97.78
2022-12-22T17:13:51.294Z,97.70
2022-12-22T17:16:20.986Z,98.01
2022-12-22T17:18:51.457Z,98.18
2022-12-22T17:21:20.453Z,98.45
2022-12-22T17:23:51.665Z,99.31
2022-12-22T17:26:23.656Z,99.07
2022-12-22T17:28:51.959Z,99.29
2022-12-22T17:31:21.683Z,99.51
2022-12-22T17:33:49.621Z,98.89
2022-12-22T17:36:28.616Z,98.92
2022-12-22T17:38:57.952Z,98.83
2022-12-22T17:41:26.982Z,98.93
2022-12-22T17:43:54.640Z,99.38
2022-12-22T17:46:23.048Z,99.06
2022-12-22T17:48:51.398Z,98.65
2022-12-22T17:51:22.081Z,98.74
2022-12-22T17:53:49.925Z,98.91
2022-12-22T17:56:19.809Z,98.79
2022-12-22T17:58:49.025Z,98.68
2022-12-22T18:01:27.462Z,98.59
2022-12-22T18:03:56.175Z,98.99
2022-12-22T18:06:27.796Z,99.77
2022-12-22T18:08:57.058Z,99.92
2022-12-22T18:11:25.269Z,100.00
2022-12-22T18:13:54.703Z,100.00
2022-12-22T18:16:23.033Z,100.00
2022-12-22T18:18:50.774Z,100.00
2022-12-22T18:21:20.732Z,100.00
2022-12-22T18:23:50.588Z,100.00
2022-12-22T18:26:23.019Z,100.00
2022-12-22T18:28:52.707Z,100.00
2022-12-22T18:31:22.876Z,100.00
2022-12-22T18:33:50.614Z,100.00
2022-12-22T18:36:19.901Z,100.00
2022-12-22T18:38:48.948Z,100.00
2022-12-22T18:41:21.455Z,100.00
2022-12-22T18:43:49.244Z,100.00
2022-12-22T18:46:16.954Z,100.00
2022-12-22T18:48:46.153Z,100.00
2022-12-22T18:51:20.059Z,100.00
2022-12-22T18:53:48.935Z,100.00
2022-12-22T18:56:16.610Z,100.00
2022-12-22T18:58:45.908Z,100.00
2022-12-22T19:01:19.961Z,100.00
2022-12-22T19:03:55.254Z,100.00
2022-12-22T19:06:24.063Z,100.00
2022-12-22T19:08:52.154Z,100.00
2022-12-22T19:11:24.749Z,100.00
2022-12-22T19:13:53.399Z,100.00
2022-12-22T19:16:25.885Z,100.00
2022-12-22T19:18:57.094Z,100.00
2022-12-22T19:21:24.706Z,100.00
2022-12-22T19:23:52.424Z,100.00
2022-12-22T19:26:22.847Z,100.00
2022-12-22T19:28:53.663Z,100.00
2022-12-22T19:31:24.086Z,100.00
2022-12-22T19:33:52.912Z,100.00
2022-12-22T19:36:26.183Z,100.00
2022-12-22T19:39:02.631Z,100.00
2022-12-22T19:41:38.079Z,100.00
2022-12-22T19:44:06.699Z,100.00
2022-12-22T19:46:35.633Z,100.00
2022-12-22T19:49:03.430Z,100.00
2022-12-22T19:51:32.427Z,100.00
2022-12-22T19:54:02.654Z,100.00
2022-12-22T19:56:30.936Z,100.00
2022-12-22T19:59:00.843Z,100.00
2022-12-22T20:01:28.573Z,100.00
2022-12-22T20:03:56.875Z,100.00
2022-12-22T20:06:24.801Z,100.00
2022-12-22T20:08:54.180Z,100.00
2022-12-22T20:11:21.791Z,100.00
2022-12-22T20:13:49.545Z,100.00
2022-12-22T20:16:17.970Z,100.00
2022-12-22T20:18:46.505Z,100.00
2022-12-22T20:21:17.570Z,100.00
2022-12-22T20:23:45.760Z,100.00
2022-12-22T20:26:19.560Z,100.00
2022-12-22T20:28:48.802Z,100.00
2022-12-22T20:31:18.436Z,100.00
2022-12-22T20:33:46.528Z,100.00
2022-12-22T20:36:21.369Z,100.00
2022-12-22T20:38:53.141Z,100.00
2022-12-22T20:41:22.300Z,100.00
2022-12-22T20:43:50.366Z,100.00
2022-12-22T20:46:20.482Z,100.00
2022-12-22T20:48:50.517Z,100.00
2022-12-22T20:51:22.640Z,100.00
2022-12-22T20:53:52.438Z,100.00
2022-12-22T20:56:26.643Z,100.00
2022-12-22T20:58:54.653Z,100.00
2022-12-22T21:01:23.630Z,100.00
2022-12-22T21:03:51.538Z,100.00
2022-12-22T21:06:27.088Z,100.00
2022-12-22T21:08:56.531Z,100.00
2022-12-22T21:11:26.422Z,100.00
2022-12-22T21:13:54.851Z,100.00
2022-12-22T21:16:25.469Z,100.00
2022-12-22T21:18:53.665Z,100.00
2022-12-22T21:21:21.810Z,100.00
2022-12-22T21:23:49.446Z,100.00
2022-12-22T21:26:25.039Z,100.00
2022-12-22T21:28:54.415Z,100.00
2022-12-22T21:31:22.242Z,100.00
2022-12-22T21:33:50.354Z,100.00
2022-12-22T21:36:23.378Z,100.00
2022-12-22T21:38:54.841Z,100.00
2022-12-22T21:41:45.921Z,100.00
2022-12-22T21:44:15.042Z,100.00
2022-12-22T21:46:44.836Z,100.00
2022-12-22T21:49:19.816Z,100.00
2022-12-22T21:51:47.706Z,100.00
2022-12-22T21:54:15.399Z,100.00
2022-12-22T21:56:42.996Z,100.00
2022-12-22T21:59:10.515Z,100.00
2022-12-22T22:01:41.903Z,100.00
2022-12-22T22:04:10.046Z,100.00
2022-12-22T22:06:37.859Z,100.00
2022-12-22T22:09:06.988Z,100.00
2022-12-22T22:11:54.807Z,100.00
2022-12-22T22:14:22.560Z,100.00
2022-12-22T22:16:52.169Z,100.00
2022-12-22T22:19:20.038Z,100.00
2022-12-22T22:21:48.649Z,100.00
2022-12-22T22:24:16.384Z,100.00
2022-12-22T22:26:45.499Z,100.00
2022-12-22T22:29:13.228Z,100.00
2022-12-22T22:31:41.437Z,100.00
2022-12-22T22:34:10.637Z,100.00
2022-12-22T22:36:38.215Z,100.00
2022-12-22T22:39:06.190Z,100.00
2022-12-22T22:41:39.205Z,100.00
2022-12-22T22:44:08.728Z,100.00
2022-12-22T22:46:36.391Z,100.00
2022-12-22T22:49:04.037Z,100.00
2022-12-22T22:51:33.574Z,100.00
2022-12-22T22:54:01.326Z,100.00
2022-12-22T22:56:29.195Z,100.00
2022-12-22T22:58:56.813Z,100.00
2022-12-22T23:01:24.394Z,100.00
2022-12-22T23:03:52.055Z,100.00
2022-12-22T23:06:20.553Z,100.00
2022-12-22T23:08:50.466Z,100.00
2022-12-22T23:11:18.240Z,100.00
2022-12-22T23:13:46.267Z,100.00
2022-12-22T23:16:14.034Z,100.00
2022-12-22T23:18:42.328Z,100.00
2022-12-22T23:21:10.064Z,100.00
2022-12-22T23:23:38.257Z,100.00
2022-12-22T23:26:07.664Z,100.00
2022-12-22T23:28:35.442Z,100.00
2022-12-22T23:31:03.067Z,100.00
2022-12-22T23:33:32.012Z,100.00
2022-12-22T23:35:59.672Z,100.00
2022-12-22T23:38:27.258Z,100.00
2022-12-22T23:41:02.569Z,100.00
2022-12-22T23:43:31.855Z,100.00
2022-12-22T23:46:00.003Z,100.00
2022-12-22T23:48:28.563Z,100.00
2022-12-22T23:50:56.089Z,100.00
2022-12-22T23:53:23.644Z,100.00
2022-12-22T23:55:51.379Z,100.00
2022-12-22T23:58:19.056Z,100.00
